Time;durP1;ratioP1;P1;durP2;ratioP2;P2;SDS_P1;SDS_P2;PMS_P1;PMS_P2;Temp;Humidity;BMP_temperature;BMP_pressure;BME280_temperature;BME280_humidity;BME280_pressure;Samples;Min_cycle;Max_cycle;Signal;HPM_P1;HPM_P2
2022/01/22 00:00:13;;;;;;;30.77;19.65;;;-1.00;99.90;;;;;;4950711;29;20027;-58
2022/01/22 00:02:39;;;;;;;31.10;20.85;;;-1.10;99.90;;;;;;4949994;29;20031;-59
2022/01/22 00:05:07;;;;;;;33.55;20.95;;;-1.20;99.90;;;;;;4950230;29;20024;-59
2022/01/22 00:07:34;;;;;;;31.20;21.75;;;-1.40;99.90;;;;;;4949566;28;20034;-59
2022/01/22 00:10:04;;;;;;;27.13;20.63;;;-1.30;99.90;;;;;;4949545;29;20447;-59
2022/01/22 00:14:59;;;;;;;35.10;22.27;;;-1.40;99.90;;;;;;4952729;29;20035;-58
2022/01/22 00:17:25;;;;;;;28.23;19.85;;;-1.30;99.90;;;;;;4949825;29;20024;-58
2022/01/22 00:19:50;;;;;;;31.60;20.33;;;-1.10;99.90;;;;;;4949794;29;20406;-58
2022/01/22 00:22:16;;;;;;;29.05;20.30;;;-1.10;99.90;;;;;;4949635;29;20035;-59
2022/01/22 00:24:45;;;;;;;28.55;20.15;;;-1.10;99.90;;;;;;4951346;29;20098;-58
2022/01/22 00:27:11;;;;;;;26.48;18.13;;;-1.20;99.90;;;;;;4941365;29;20115;-58
2022/01/22 00:29:37;;;;;;;28.77;19.00;;;-1.30;99.90;;;;;;4944323;28;20502;-59
2022/01/22 00:32:03;;;;;;;26.17;17.63;;;-1.40;99.90;;;;;;4943324;29;20042;-58
2022/01/22 00:34:29;;;;;;;27.42;18.52;;;-1.20;99.90;;;;;;4950753;29;20069;-59
2022/01/22 00:36:54;;;;;;;27.63;17.23;;;-1.20;99.90;;;;;;4949934;28;20063;-58
2022/01/22 00:39:20;;;;;;;27.98;18.27;;;-1.10;99.90;;;;;;4953336;29;20034;-58
2022/01/22 00:41:46;;;;;;;27.95;17.55;;;-1.10;99.90;;;;;;4951345;29;20019;-58
2022/01/22 00:44:11;;;;;;;29.65;19.70;;;-1.10;99.90;;;;;;4953214;28;20102;-59
2022/01/22 00:46:37;;;;;;;30.80;19.20;;;-1.00;99.90;;;;;;4953042;29;20385;-59
2022/01/22 00:49:03;;;;;;;27.85;17.55;;;-1.00;99.90;;;;;;4953499;28;20115;-59
2022/01/22 00:51:29;;;;;;;31.10;19.58;;;-1.10;99.90;;;;;;4956782;29;20023;-58
2022/01/22 00:53:54;;;;;;;38.05;23.80;;;-1.20;99.90;;;;;;4953868;29;20051;-59
2022/01/22 00:56:20;;;;;;;49.55;30.90;;;-1.40;99.90;;;;;;4953058;28;20055;-57
2022/01/22 00:58:46;;;;;;;50.08;31.52;;;-1.60;99.90;;;;;;4953219;29;20031;-59
2022/01/22 01:01:12;;;;;;;46.53;29.95;;;-1.40;99.90;;;;;;4951806;29;20538;-59
2022/01/22 01:03:38;;;;;;;44.95;28.52;;;-1.70;99.90;;;;;;4945989;28;20032;-58
2022/01/22 01:06:05;;;;;;;39.92;26.02;;;-1.80;99.90;;;;;;4954465;29;20030;-59
2022/01/22 01:08:33;;;;;;;40.05;25.27;;;-1.60;99.90;;;;;;4952656;28;20039;-58
2022/01/22 01:11:00;;;;;;;36.35;24.50;;;-1.60;99.90;;;;;;4953178;29;20106;-58
2022/01/22 01:13:29;;;;;;;37.47;25.52;;;-1.60;99.90;;;;;;4954550;29;20090;-58
2022/01/22 01:16:17;;;;;;;29.35;20.55;;;-1.60;99.90;;;;;;4938128;28;20086;-59
2022/01/22 01:32:35;;;;;;;54.00;39.83;;;-1.30;99.90;;;;;;4953416;29;20042;-58
2022/01/22 01:35:05;;;;;;;47.88;34.63;;;-1.20;99.90;;;;;;4952222;29;20110;-58
2022/01/22 01:37:31;;;;;;;39.50;25.98;;;-1.30;99.90;;;;;;4951882;29;20027;-59
2022/01/22 01:40:01;;;;;;;32.35;20.80;;;-1.30;99.90;;;;;;4952821;29;20038;-59
2022/01/22 01:44:56;;;;;;;28.48;18.05;;;-1.50;99.90;;;;;;4954421;29;20138;-58
2022/01/22 01:47:22;;;;;;;28.02;17.48;;;-1.50;99.90;;;;;;4952344;28;20055;-59
2022/01/22 01:49:48;;;;;;;28.40;17.02;;;-1.50;99.90;;;;;;4952209;29;20082;-59
2022/01/22 01:52:22;;;;;;;28.17;17.98;;;-1.60;99.90;;;;;;4952927;28;20031;-58
2022/01/22 01:55:02;;;;;;;26.15;16.30;;;-1.60;99.90;;;;;;4953774;28;20539;-59
2022/01/22 01:57:38;;;;;;;24.48;15.55;;;-1.60;99.90;;;;;;4955473;28;20031;-59
2022/01/22 02:00:06;;;;;;;27.77;16.90;;;-1.60;99.90;;;;;;4953986;29;20054;-59
2022/01/22 02:02:34;;;;;;;25.10;15.75;;;-1.60;99.90;;;;;;4951998;29;20432;-59
2022/01/22 02:05:00;;;;;;;20.17;13.50;;;-1.50;99.90;;;;;;4952053;29;20059;-58
2022/01/22 02:07:25;;;;;;;27.20;15.98;;;-1.50;99.90;;;;;;4951962;29;20125;-59
2022/01/22 02:09:51;;;;;;;26.48;16.38;;;-1.60;99.90;;;;;;4952962;29;20024;-58
2022/01/22 02:23:34;;;;;;;26.52;14.18;;;-1.60;99.90;;;;;;4930341;29;20127;-59
2022/01/22 02:26:00;;;;;;;26.58;15.95;;;-1.60;99.90;;;;;;4930106;29;20076;-59
2022/01/22 02:28:25;;;;;;;25.92;15.13;;;-1.50;99.90;;;;;;4923095;29;20036;-58
2022/01/22 02:30:58;;;;;;;27.92;16.60;;;-1.50;99.90;;;;;;4918737;29;20038;-59
2022/01/22 02:33:40;;;;;;;27.70;16.77;;;-1.60;99.90;;;;;;4919706;29;20032;-58
2022/01/22 02:36:17;;;;;;;29.48;15.70;;;-1.70;99.90;;;;;;4923310;29;20529;-59
2022/01/22 02:38:56;;;;;;;22.58;13.90;;;-1.70;99.90;;;;;;4923440;29;20123;-59
2022/01/22 02:41:24;;;;;;;28.48;17.77;;;-1.70;99.90;;;;;;4923253;29;20036;-58
2022/01/22 02:43:52;;;;;;;31.88;22.35;;;-1.60;99.90;;;;;;4924344;29;20426;-58
2022/01/22 02:46:20;;;;;;;22.50;15.75;;;-1.70;99.90;;;;;;4921617;29;20051;-58
2022/01/22 02:48:46;;;;;;;20.30;14.13;;;-1.80;99.90;;;;;;4918526;29;20562;-59
2022/01/22 02:51:11;;;;;;;20.08;10.10;;;-1.80;99.90;;;;;;4920414;29;20071;-59
2022/01/22 02:53:37;;;;;;;14.88;10.02;;;-1.80;99.90;;;;;;4918985;29;20127;-59
2022/01/22 02:56:03;;;;;;;21.92;12.43;;;-1.80;99.90;;;;;;4917665;29;20040;-59
2022/01/22 02:58:29;;;;;;;23.23;14.80;;;-1.90;99.90;;;;;;4936960;29;20043;-59
2022/01/22 03:00:55;;;;;;;27.20;15.85;;;-1.90;99.90;;;;;;4936310;29;20051;-59
2022/01/22 03:03:21;;;;;;;28.45;17.17;;;-1.90;99.90;;;;;;4954037;28;20019;-59
2022/01/22 03:05:46;;;;;;;28.55;18.80;;;-2.00;99.90;;;;;;4950624;28;20551;-58
2022/01/22 03:08:13;;;;;;;26.88;16.27;;;-2.10;99.90;;;;;;4951172;29;20031;-59
2022/01/22 03:10:43;;;;;;;23.17;14.02;;;-2.10;99.90;;;;;;4952101;28;20031;-59
2022/01/22 03:18:37;;;;;;;22.83;14.38;;;-1.90;99.90;;;;;;4953737;29;20027;-59
2022/01/22 03:21:39;;;;;;;22.10;14.30;;;-1.80;99.90;;;;;;4953885;28;20039;-58
2022/01/22 03:29:37;;;;;;;18.92;11.90;;;-1.90;99.90;;;;;;4921238;29;20076;-59
2022/01/22 03:32:04;;;;;;;22.75;12.30;;;-2.00;99.90;;;;;;4925463;29;20046;-59
2022/01/22 03:34:36;;;;;;;18.25;11.35;;;-1.90;99.90;;;;;;4931134;29;20036;-59
2022/01/22 03:37:03;;;;;;;22.48;11.90;;;-1.90;99.90;;;;;;4917736;29;20082;-59
2022/01/22 03:39:29;;;;;;;25.80;11.57;;;-1.90;99.90;;;;;;4917278;29;20032;-58
2022/01/22 03:41:55;;;;;;;17.45;11.43;;;-1.90;99.90;;;;;;4921264;29;20032;-59
2022/01/22 03:44:20;;;;;;;20.40;10.88;;;-1.90;99.90;;;;;;4923625;29;20048;-59
2022/01/22 03:46:46;;;;;;;21.45;11.50;;;-1.90;99.90;;;;;;4922560;29;20028;-58
2022/01/22 03:49:13;;;;;;;20.98;11.60;;;-2.00;99.90;;;;;;4930219;29;20024;-59
2022/01/22 03:51:39;;;;;;;22.85;11.75;;;-2.00;99.90;;;;;;4929488;29;20024;-58
2022/01/22 03:54:04;;;;;;;20.00;11.95;;;-2.10;99.90;;;;;;4919953;29;20044;-59
2022/01/22 03:56:30;;;;;;;21.10;11.32;;;-2.00;99.90;;;;;;4920882;29;20036;-57
2022/01/22 03:58:56;;;;;;;20.65;9.98;;;-2.00;99.90;;;;;;4925756;29;20035;-58
2022/01/22 04:01:59;;;;;;;25.92;12.63;;;-2.10;99.90;;;;;;4931656;29;20027;-59
2022/01/22 04:04:17;;;;;;;32.30;17.75;;;-2.10;99.90;;;;;;4936423;29;20078;-59
2022/01/22 04:09:17;;;;;;;27.98;15.57;;;-2.10;99.90;;;;;;4953767;29;20515;-59
2022/01/22 04:11:45;;;;;;;31.25;17.02;;;-2.10;99.90;;;;;;4949949;29;20077;-59
2022/01/22 04:14:22;;;;;;;28.30;16.52;;;-2.10;99.90;;;;;;4949685;28;20094;-59
2022/01/22 04:17:08;;;;;;;30.02;16.30;;;-2.20;99.90;;;;;;4949320;28;20110;-59
2022/01/22 04:25:05;;;;;;;25.35;15.05;;;-2.20;99.90;;;;;;4935223;29;20128;-58
2022/01/22 04:27:30;;;;;;;28.20;14.32;;;-2.10;99.90;;;;;;4952705;28;20059;-58
2022/01/22 04:29:59;;;;;;;23.23;12.02;;;-2.00;99.90;;;;;;4952152;28;20055;-58
2022/01/22 04:32:26;;;;;;;30.70;21.83;;;-1.90;99.90;;;;;;4949547;28;20069;-58
2022/01/22 04:34:53;;;;;;;28.27;22.90;;;-1.80;99.90;;;;;;4949472;28;20099;-58
2022/01/22 04:37:19;;;;;;;28.23;19.63;;;-1.90;99.90;;;;;;4949885;29;20045;-59
2022/01/22 04:39:48;;;;;;;28.90;19.92;;;-1.90;99.90;;;;;;4966173;28;20027;-58
2022/01/22 04:42:18;;;;;;;26.20;19.05;;;-2.00;99.90;;;;;;4952157;29;20396;-59
2022/01/22 04:47:21;;;;;;;15.13;8.00;;;-2.00;99.90;;;;;;4949980;28;20520;-59
2022/01/22 04:52:42;;;;;;;15.93;8.07;;;-1.80;99.90;;;;;;4949392;29;20070;-59
2022/01/22 04:55:09;;;;;;;16.38;7.93;;;-1.70;99.90;;;;;;4949190;29;20028;-58
2022/01/22 04:57:42;;;;;;;16.48;8.07;;;-1.50;99.90;;;;;;4951814;28;20039;-58
2022/01/22 05:00:14;;;;;;;15.10;7.90;;;-1.20;99.90;;;;;;4950984;29;20074;-59
2022/01/22 05:02:40;;;;;;;14.70;8.05;;;-1.40;99.90;;;;;;4946890;29;20027;-58
2022/01/22 05:05:06;;;;;;;13.85;7.53;;;-1.50;99.90;;;;;;4938288;29;20120;-59
2022/01/22 05:07:32;;;;;;;15.95;7.63;;;-1.60;99.90;;;;;;4938826;28;20023;-58
2022/01/22 05:09:58;;;;;;;16.52;8.18;;;-1.40;99.90;;;;;;4936938;28;20031;-59
2022/01/22 05:12:24;;;;;;;19.48;9.15;;;-1.40;99.90;;;;;;4941525;29;20384;-58
2022/01/22 05:14:50;;;;;;;18.90;9.32;;;-1.20;99.90;;;;;;4948652;28;20043;-59
2022/01/22 05:17:18;;;;;;;20.67;9.48;;;-1.20;99.90;;;;;;4950815;29;20023;-59
2022/01/22 05:20:00;;;;;;;16.20;8.10;;;-1.40;99.90;;;;;;4951792;29;20031;-59
2022/01/22 05:22:47;;;;;;;15.23;8.02;;;-1.40;99.90;;;;;;4950105;29;20063;-58
2022/01/22 05:25:22;;;;;;;15.18;7.50;;;-1.50;99.90;;;;;;4948407;28;20039;-58
2022/01/22 05:38:34;;;;;;;17.48;7.78;;;-1.50;99.90;;;;;;4949321;29;20548;-58
2022/01/22 05:41:01;;;;;;;15.85;7.60;;;-1.50;99.90;;;;;;4945187;29;20035;-58
2022/01/22 05:43:27;;;;;;;15.35;7.10;;;-1.40;99.90;;;;;;4953224;28;20059;-58
2022/01/22 05:45:53;;;;;;;14.32;7.38;;;-1.40;99.90;;;;;;4954546;29;20028;-58
2022/01/22 05:48:19;;;;;;;15.35;7.20;;;-1.30;99.90;;;;;;4952121;28;20031;-58
2022/01/22 05:50:55;;;;;;;14.93;7.35;;;-1.30;99.90;;;;;;4952903;28;20563;-58
2022/01/22 06:01:18;;;;;;;15.18;7.70;;;-0.90;99.90;;;;;;4952568;29;20563;-58
2022/01/22 06:03:44;;;;;;;15.10;8.35;;;-0.80;99.90;;;;;;4951890;28;20042;-58
2022/01/22 06:06:11;;;;;;;18.85;7.60;;;-0.80;99.90;;;;;;4952120;28;20512;-58
2022/01/22 06:08:51;;;;;;;14.43;7.38;;;-0.90;99.90;;;;;;4952097;29;20027;-59
2022/01/22 06:11:28;;;;;;;17.77;7.85;;;-0.80;99.90;;;;;;4953390;28;20023;-59
2022/01/22 06:13:53;;;;;;;16.70;8.20;;;-0.70;99.90;;;;;;4955396;29;20043;-58
2022/01/22 06:16:23;;;;;;;16.42;6.90;;;-0.80;99.90;;;;;;4951694;29;20031;-58
2022/01/22 06:18:50;;;;;;;17.33;7.70;;;-0.80;99.90;;;;;;4952101;28;20037;-58
2022/01/22 06:21:16;;;;;;;16.05;8.05;;;-0.90;99.90;;;;;;4951621;28;20016;-59
2022/01/22 06:23:45;;;;;;;18.63;8.60;;;-0.80;99.90;;;;;;4952825;28;20031;-58
2022/01/22 06:26:12;;;;;;;17.27;7.78;;;-0.90;99.90;;;;;;4953703;28;20415;-58
2022/01/22 06:28:38;;;;;;;15.43;7.82;;;-1.00;99.90;;;;;;4953179;28;20035;-58
2022/01/22 06:31:04;;;;;;;17.30;7.90;;;-1.00;99.90;;;;;;4951521;28;20027;-58
2022/01/22 06:33:31;;;;;;;14.55;8.07;;;-0.80;99.90;;;;;;4951603;28;20082;-58
2022/01/22 06:35:57;;;;;;;15.00;7.47;;;-0.70;99.90;;;;;;4951320;28;20118;-58
2022/01/22 06:38:22;;;;;;;14.40;7.05;;;-0.70;99.90;;;;;;4951216;28;20023;-58
2022/01/22 06:43:33;;;;;;;15.23;8.18;;;-0.70;99.90;;;;;;4954095;29;20061;-58
2022/01/22 06:45:59;;;;;;;14.55;7.68;;;-0.80;99.90;;;;;;4951320;28;20039;-58
2022/01/22 06:48:25;;;;;;;16.92;7.57;;;-0.80;99.90;;;;;;4951519;28;20082;-58
2022/01/22 06:50:51;;;;;;;16.50;7.72;;;-0.70;99.90;;;;;;4950287;28;20027;-57
2022/01/22 06:53:17;;;;;;;17.85;7.07;;;-0.70;99.90;;;;;;4952568;28;20448;-58
2022/01/22 06:55:46;;;;;;;15.82;6.80;;;-0.70;99.90;;;;;;4950504;28;20063;-58
2022/01/22 06:58:13;;;;;;;18.58;7.10;;;-0.70;99.90;;;;;;4950959;28;20063;-58
2022/01/22 07:00:39;;;;;;;14.63;6.80;;;-0.70;99.90;;;;;;4953585;29;20023;-59
2022/01/22 07:03:05;;;;;;;15.55;8.77;;;-0.70;99.90;;;;;;4953697;29;20559;-58
2022/01/22 07:05:33;;;;;;;16.63;7.00;;;-0.70;99.90;;;;;;4951064;28;20146;-57
2022/01/22 07:07:58;;;;;;;14.38;7.47;;;-0.80;99.90;;;;;;4950656;28;20059;-58
2022/01/22 07:10:24;;;;;;;13.88;6.78;;;-0.90;99.90;;;;;;4950217;29;20050;-56
2022/01/22 07:12:50;;;;;;;13.27;6.57;;;-1.00;99.90;;;;;;4952045;29;20428;-57
2022/01/22 07:15:16;;;;;;;15.43;7.13;;;-0.80;99.90;;;;;;4953385;29;20031;-58
2022/01/22 07:17:43;;;;;;;16.08;7.00;;;-0.90;99.90;;;;;;4950530;28;20031;-57
2022/01/22 07:20:26;;;;;;;12.73;7.13;;;-0.80;99.90;;;;;;4951922;28;20043;-58
2022/01/22 07:22:59;;;;;;;19.58;8.82;;;-0.70;99.90;;;;;;4950508;28;20082;-58
2022/01/22 07:25:26;;;;;;;;;;;-0.80;99.90;;;;;;4950713;28;20468;-57
2022/01/22 07:27:52;;;;;;;14.50;8.30;;;-0.70;99.90;;;;;;4951104;28;19915;-57
2022/01/22 07:30:18;;;;;;;15.82;8.40;;;-0.60;99.90;;;;;;4953794;29;20123;-57
2022/01/22 07:32:44;;;;;;;19.45;8.27;;;-0.60;99.90;;;;;;4950314;28;20027;-58
2022/01/22 07:35:17;;;;;;;19.00;8.63;;;-0.70;99.90;;;;;;4949961;28;20055;-54
2022/01/22 07:37:43;;;;;;;24.57;16.63;;;-0.60;99.90;;;;;;4950524;28;20073;-55
2022/01/22 07:40:10;;;;;;;19.00;8.27;;;-0.50;99.90;;;;;;4951587;29;20046;-57
2022/01/22 07:42:37;;;;;;;15.45;8.82;;;-0.40;99.90;;;;;;4952224;28;20015;-58
2022/01/22 07:45:04;;;;;;;19.83;10.63;;;-0.40;99.90;;;;;;4952826;29;20039;-58
2022/01/22 07:47:30;;;;;;;15.43;7.80;;;-0.30;99.90;;;;;;4950407;29;20484;-55
2022/01/22 07:49:56;;;;;;;13.70;8.23;;;-0.30;99.90;;;;;;4949683;28;20031;-58
2022/01/22 07:52:23;;;;;;;20.65;12.07;;;-0.20;99.90;;;;;;4949753;28;20035;-57
2022/01/22 07:54:49;;;;;;;22.80;14.95;;;0.00;99.90;;;;;;4951119;28;20445;-57
2022/01/22 07:57:15;;;;;;;17.92;10.88;;;0.60;99.90;;;;;;4949566;29;20400;-58
2022/01/22 07:59:40;;;;;;;15.68;7.93;;;1.50;99.90;;;;;;4948877;28;20089;-58
2022/01/22 08:02:06;;;;;;;13.63;6.13;;;1.80;99.90;;;;;;4948808;29;20027;-58
2022/01/22 08:04:33;;;;;;;10.10;5.80;;;2.40;99.90;;;;;;4948746;29;20031;-59
2022/01/22 08:07:04;;;;;;;11.77;6.13;;;2.20;99.90;;;;;;4949220;28;20381;-58
2022/01/22 08:09:30;;;;;;;14.38;6.90;;;2.70;99.90;;;;;;4946385;29;20039;-58
2022/01/22 08:11:56;;;;;;;12.55;5.55;;;2.50;99.90;;;;;;4950718;29;20413;-58
2022/01/22 08:14:22;;;;;;;10.75;6.13;;;2.90;99.90;;;;;;4949552;29;20098;-57
2022/01/22 08:16:49;;;;;;;17.58;9.75;;;2.90;99.90;;;;;;4950728;28;20027;-57
2022/01/22 08:19:16;;;;;;;13.30;5.45;;;3.30;99.90;;;;;;4949251;28;20038;-57
2022/01/22 08:21:43;;;;;;;8.75;4.78;;;3.80;99.90;;;;;;4952003;29;20122;-57
2022/01/22 08:24:10;;;;;;;11.55;4.95;;;4.10;99.90;;;;;;4948232;29;20118;-57
2022/01/22 08:26:41;;;;;;;7.97;4.70;;;4.20;99.90;;;;;;4949506;28;20046;-57
2022/01/22 08:29:06;;;;;;;10.55;4.97;;;4.40;99.90;;;;;;4949459;28;20043;-57
2022/01/22 08:36:45;;;;;;;14.00;7.20;;;5.30;99.90;;;;;;4951404;29;20591;-58
2022/01/22 08:39:15;;;;;;;10.48;4.78;;;5.80;99.90;;;;;;4952427;29;20041;-57
2022/01/22 08:41:41;;;;;;;9.98;5.20;;;6.50;99.90;;;;;;4948904;28;20432;-58
2022/01/22 08:44:08;;;;;;;8.38;4.05;;;6.00;99.90;;;;;;4948925;28;20051;-58
2022/01/22 08:46:34;;;;;;;14.32;6.57;;;5.70;99.90;;;;;;4948417;29;20078;-58
2022/01/22 08:49:01;;;;;;;8.68;4.88;;;5.40;99.90;;;;;;4949364;28;20079;-57
2022/01/22 08:51:27;;;;;;;7.53;4.68;;;6.20;99.90;;;;;;4953021;29;20028;-58
2022/01/22 08:53:55;;;;;;;9.10;4.50;;;5.20;99.90;;;;;;4949676;29;20812;-58
2022/01/22 08:56:21;;;;;;;12.25;5.07;;;6.30;99.90;;;;;;4944906;28;20547;-59
2022/01/22 08:58:47;;;;;;;10.55;5.63;;;6.00;99.90;;;;;;4947647;29;20027;-58
2022/01/22 09:01:13;;;;;;;13.77;7.60;;;6.00;99.90;;;;;;4949276;28;20394;-58
2022/01/22 09:03:39;;;;;;;8.98;4.38;;;6.80;99.90;;;;;;4954635;29;20043;-59
2022/01/22 09:06:07;;;;;;;11.73;4.70;;;6.40;99.90;;;;;;4954805;29;20031;-59
2022/01/22 09:08:33;;;;;;;8.40;4.30;;;6.50;99.90;;;;;;4941931;28;20086;-59
2022/01/22 09:10:59;;;;;;;8.93;5.07;;;6.70;99.90;;;;;;4949388;28;20572;-59
2022/01/22 09:13:26;;;;;;;10.20;4.57;;;7.90;99.90;;;;;;4951575;28;20043;-59
2022/01/22 09:15:54;;;;;;;11.52;6.47;;;7.30;99.90;;;;;;4953328;29;20035;-58
2022/01/22 09:18:20;;;;;;;12.30;5.80;;;6.70;99.90;;;;;;4954295;29;20492;-60
2022/01/22 09:23:15;;;;;;;17.55;10.43;;;7.60;99.90;;;;;;4947143;29;20028;-59
2022/01/22 09:25:43;;;;;;;17.23;10.73;;;7.10;99.90;;;;;;4955838;29;20046;-58
2022/01/22 09:28:12;;;;;;;11.80;6.97;;;7.10;99.90;;;;;;4952273;28;20028;-59
2022/01/22 09:30:38;;;;;;;9.60;4.97;;;6.10;99.90;;;;;;4952192;28;20416;-58
2022/01/22 09:33:04;;;;;;;12.48;6.60;;;6.50;99.90;;;;;;4950810;28;20098;-59
2022/01/22 09:35:30;;;;;;;106.15;50.13;;;6.80;99.90;;;;;;4948797;29;20500;-59
2022/01/22 09:37:57;;;;;;;339.60;136.23;;;6.60;99.90;;;;;;4955801;29;20480;-59
2022/01/22 09:40:27;;;;;;;73.00;29.90;;;7.10;99.90;;;;;;4952188;29;20038;-58
2022/01/22 09:42:53;;;;;;;95.25;34.03;;;7.70;99.90;;;;;;4951069;29;20047;-57
2022/01/22 09:45:20;;;;;;;15.30;8.55;;;6.90;99.90;;;;;;4946889;29;20026;-58
2022/01/22 09:47:48;;;;;;;18.70;8.38;;;8.30;99.90;;;;;;4945758;29;20035;-58
2022/01/22 09:50:17;;;;;;;18.35;9.23;;;6.80;99.90;;;;;;4944154;28;20067;-58
2022/01/22 09:52:45;;;;;;;190.45;63.33;;;7.20;99.90;;;;;;4948247;28;20485;-58
2022/01/22 09:55:11;;;;;;;173.35;62.80;;;8.30;99.90;;;;;;4951037;28;20070;-58
2022/01/22 09:57:37;;;;;;;259.35;97.70;;;8.60;99.90;;;;;;4948403;28;20019;-57
2022/01/22 10:00:14;;;;;;;32.50;17.95;;;7.60;99.90;;;;;;4950483;29;20035;-59
2022/01/22 10:02:45;;;;;;;17.50;12.27;;;8.40;99.90;;;;;;4950454;29;20027;-58
2022/01/22 10:05:33;;;;;;;14.10;8.88;;;7.60;99.90;;;;;;4946902;29;20038;-58
2022/01/22 10:08:17;;;;;;;11.20;7.70;;;6.90;99.90;;;;;;4954691;28;20036;-59
2022/01/22 10:10:43;;;;;;;;;;;7.40;99.90;;;;;;4953468;29;20066;-58
2022/01/22 10:13:08;;;;;;;14.98;6.47;;;6.80;99.90;;;;;;4951436;28;20028;-58
2022/01/22 10:15:35;;;;;;;11.43;5.72;;;6.80;99.90;;;;;;4950028;28;20552;-58
2022/01/22 10:18:02;;;;;;;22.45;18.70;;;6.80;99.90;;;;;;4950263;28;20042;-59
2022/01/22 10:20:46;;;;;;;8.90;5.13;;;7.10;99.90;;;;;;4941965;29;20023;-59
2022/01/22 10:23:23;;;;;;;10.85;4.28;;;6.40;99.90;;;;;;4952988;29;20102;-59
2022/01/22 10:25:57;;;;;;;9.60;5.10;;;7.40;99.90;;;;;;4953932;29;20070;-58
2022/01/22 10:28:25;;;;;;;;;;;8.60;99.90;;;;;;4950466;28;20042;-58
2022/01/22 10:31:00;;;;;;;7.90;4.28;;;8.60;99.90;;;;;;4950060;28;19911;-58
2022/01/22 10:33:30;;;;;;;8.30;3.90;;;8.00;99.90;;;;;;4950102;28;20023;-58
2022/01/22 10:36:21;;;;;;;10.57;4.05;;;7.40;99.90;;;;;;4950958;28;20039;-58
2022/01/22 10:38:52;;;;;;;7.60;4.45;;;7.90;99.90;;;;;;4937846;29;20032;-58
2022/01/22 10:41:35;;;;;;;9.20;4.25;;;8.30;99.90;;;;;;4951661;28;20023;-58
2022/01/22 10:44:03;;;;;;;7.32;3.30;;;8.40;99.90;;;;;;4905168;28;1434836;-58
2022/01/22 10:47:02;;;;;;;7.55;3.50;;;8.40;99.90;;;;;;4952801;29;20470;-58
2022/01/22 10:49:28;;;;;;;8.30;3.70;;;7.40;99.90;;;;;;4951702;29;20023;-58
2022/01/22 10:52:07;;;;;;;7.05;3.90;;;7.30;99.90;;;;;;4951501;28;20090;-58
2022/01/22 10:54:35;;;;;;;8.32;3.47;;;8.30;99.90;;;;;;4952451;28;20035;-58
2022/01/22 10:57:25;;;;;;;9.15;3.75;;;9.60;99.90;;;;;;4951017;28;20070;-58
2022/01/22 10:59:53;;;;;;;8.82;3.70;;;9.60;99.90;;;;;;4939117;29;20049;-58
2022/01/22 11:02:31;;;;;;;6.95;3.35;;;7.70;99.90;;;;;;4951650;28;20066;-59
2022/01/22 11:04:57;;;;;;;9.73;4.68;;;7.60;99.90;;;;;;4955102;28;20027;-58
2022/01/22 11:07:23;;;;;;;8.52;3.58;;;7.60;99.90;;;;;;4950565;29;20030;-58
2022/01/22 11:09:49;;;;;;;11.60;4.43;;;8.40;99.90;;;;;;4951167;28;20342;-59
2022/01/22 11:12:16;;;;;;;8.02;3.63;;;8.60;99.90;;;;;;4950334;28;20078;-58
2022/01/22 11:14:43;;;;;;;7.80;3.63;;;8.30;99.90;;;;;;4950767;28;20035;-58
2022/01/22 11:17:09;;;;;;;8.32;3.80;;;7.10;99.90;;;;;;4949692;28;20027;-58
2022/01/22 11:19:38;;;;;;;8.25;4.13;;;6.90;99.90;;;;;;4949125;29;20086;-58
2022/01/22 11:22:16;;;;;;;7.13;3.65;;;7.10;99.90;;;;;;4950443;28;20098;-58
2022/01/22 11:24:44;;;;;;;6.75;3.92;;;7.30;99.90;;;;;;4940432;29;20172;-59
2022/01/22 11:27:19;;;;;;;6.32;3.97;;;7.30;99.90;;;;;;4949514;29;20023;-58
2022/01/22 11:29:56;;;;;;;5.70;3.50;;;7.20;99.90;;;;;;4943715;28;20522;-58
2022/01/22 11:32:40;;;;;;;6.43;3.60;;;7.10;99.90;;;;;;4946198;29;20031;-59
2022/01/22 11:35:07;;;;;;;6.90;3.33;;;7.00;99.90;;;;;;4949629;28;20035;-59
2022/01/22 11:37:46;;;;;;;5.43;3.85;;;7.40;99.90;;;;;;4950354;29;20118;-59
2022/01/22 11:40:19;;;;;;;8.35;3.83;;;7.70;99.90;;;;;;4949106;28;20043;-59
2022/01/22 11:42:56;;;;;;;6.55;3.63;;;7.90;99.90;;;;;;4946294;28;20050;-58
2022/01/22 11:45:35;;;;;;;7.88;4.60;;;8.40;99.90;;;;;;4953259;29;20043;-59
2022/01/22 11:48:26;;;;;;;7.78;4.18;;;8.30;99.90;;;;;;4952997;29;20030;-58
2022/01/22 11:50:54;;;;;;;7.70;3.95;;;8.50;99.90;;;;;;4945427;29;20050;-59
2022/01/22 11:53:29;;;;;;;10.30;4.38;;;7.90;99.90;;;;;;4946713;29;20027;-60
2022/01/22 11:56:10;;;;;;;7.20;3.75;;;7.80;99.90;;;;;;4945995;29;20064;-60
2022/01/22 11:59:02;;;;;;;7.72;4.00;;;8.50;99.90;;;;;;4951395;29;20036;-60
2022/01/22 12:04:16;;;;;;;9.38;4.07;;;9.00;99.90;;;;;;4949003;29;20086;-59
2022/01/22 12:07:00;;;;;;;4.68;3.10;;;8.60;99.90;;;;;;4949553;29;20019;-60
2022/01/22 12:09:29;;;;;;;;;;;8.30;99.90;;;;;;4951698;29;20031;-59
2022/01/22 12:14:49;;;;;;;5.60;3.63;;;10.40;99.90;;;;;;4938421;29;20540;-60
2022/01/22 12:17:29;;;;;;;5.88;4.20;;;9.50;99.90;;;;;;4938239;29;20031;-59
2022/01/22 12:22:35;;;;;;;6.32;3.30;;;8.30;99.90;;;;;;4953648;28;20077;-60
2022/01/22 12:25:09;;;;;;;6.32;3.00;;;9.00;99.90;;;;;;4950607;28;20231;-59
2022/01/22 12:27:41;;;;;;;;;;;8.40;99.90;;;;;;4953211;28;20023;-59
2022/01/22 12:30:07;;;;;;;6.93;3.10;;;9.60;99.90;;;;;;4959026;28;19917;-60
2022/01/22 12:32:47;;;;;;;9.30;4.03;;;8.70;99.90;;;;;;4949109;29;20027;-59
2022/01/22 12:35:18;;;;;;;7.70;3.70;;;8.30;99.90;;;;;;4951884;28;20031;-59
2022/01/22 12:37:51;;;;;;;6.65;3.25;;;8.60;99.90;;;;;;4955683;28;20031;-59
2022/01/22 12:40:35;;;;;;;8.80;4.72;;;8.40;99.90;;;;;;4953340;28;20024;-60
2022/01/22 12:43:08;;;;;;;5.95;3.60;;;8.50;99.90;;;;;;4953278;29;20400;-60
2022/01/22 12:45:36;;;;;;;6.13;4.13;;;8.50;99.90;;;;;;4953322;28;20059;-60
2022/01/22 12:48:03;;;;;;;6.38;3.25;;;8.20;99.90;;;;;;4954931;28;20118;-60
2022/01/22 12:50:32;;;;;;;6.40;3.47;;;8.00;99.90;;;;;;4967720;28;20026;-60
2022/01/22 12:53:03;;;;;;;6.38;3.17;;;8.10;99.90;;;;;;4962943;28;20034;-60
2022/01/22 12:56:01;;;;;;;5.85;2.90;;;7.90;99.90;;;;;;4948138;29;20046;-60
2022/01/22 12:58:29;;;;;;;4.20;2.80;;;7.90;99.90;;;;;;4954209;29;20408;-60
2022/01/22 13:01:10;;;;;;;8.80;4.70;;;7.70;99.90;;;;;;4952838;28;20428;-60
2022/01/22 13:03:41;;;;;;;5.43;3.05;;;8.40;99.90;;;;;;4952931;29;20028;-60
2022/01/22 13:06:07;;;;;;;5.47;3.05;;;8.50;99.90;;;;;;4953682;28;20400;-59
2022/01/22 13:08:34;;;;;;;5.40;2.78;;;8.60;99.90;;;;;;4953233;28;20031;-60
2022/01/22 13:11:02;;;;;;;6.43;2.88;;;8.60;99.90;;;;;;4956795;28;20034;-60
2022/01/22 13:13:29;;;;;;;5.97;3.03;;;8.30;99.90;;;;;;4954146;29;20579;-60
2022/01/22 13:16:06;;;;;;;6.03;3.30;;;7.90;99.90;;;;;;4950223;29;20031;-61
2022/01/22 13:19:07;;;;;;;6.97;3.13;;;8.10;99.90;;;;;;4952424;29;20031;-58
2022/01/22 13:21:33;;;;;;;7.75;3.33;;;8.10;99.90;;;;;;4949160;28;20427;-59
2022/01/22 13:24:02;;;;;;;8.10;3.80;;;7.80;99.90;;;;;;4953855;28;20105;-59
2022/01/22 13:26:44;;;;;;;8.18;4.70;;;8.20;99.90;;;;;;4953934;29;20509;-60
2022/01/22 13:29:17;;;;;;;7.93;3.42;;;8.30;99.90;;;;;;4954963;29;20587;-59
2022/01/22 13:32:02;;;;;;;6.60;3.53;;;7.70;99.90;;;;;;4946814;29;20020;-59
2022/01/22 13:34:40;;;;;;;7.45;5.57;;;7.80;99.90;;;;;;4950939;29;20043;-60
2022/01/22 13:40:08;;;;;;;7.32;4.65;;;7.80;99.90;;;;;;4952179;29;20066;-59
2022/01/22 13:48:28;;;;;;;6.85;3.17;;;7.80;99.90;;;;;;4949032;29;20128;-59
2022/01/22 13:50:54;;;;;;;13.27;7.18;;;7.50;99.90;;;;;;4946751;29;20062;-59
2022/01/22 13:53:20;;;;;;;6.82;3.72;;;7.50;99.90;;;;;;4946193;29;20031;-60
2022/01/22 13:56:09;;;;;;;6.88;4.60;;;7.50;99.90;;;;;;4947681;28;20031;-59
2022/01/22 13:58:35;;;;;;;7.53;4.25;;;7.90;99.90;;;;;;4950194;29;20038;-59
2022/01/22 14:01:48;;;;;;;7.75;4.47;;;7.80;99.90;;;;;;4943496;28;20027;-59
2022/01/22 14:04:14;;;;;;;7.68;3.90;;;7.90;99.90;;;;;;4946060;28;20078;-59
2022/01/22 14:06:42;;;;;;;8.25;4.40;;;7.80;99.90;;;;;;4945936;29;20042;-59
2022/01/22 14:09:19;;;;;;;7.05;3.15;;;7.60;99.90;;;;;;4951563;29;20102;-58
2022/01/22 14:12:11;;;;;;;5.63;3.13;;;7.60;99.90;;;;;;4948229;28;20028;-58
2022/01/22 14:15:00;;;;;;;6.80;3.30;;;7.60;99.90;;;;;;4949218;28;20051;-59
2022/01/22 14:17:32;;;;;;;6.65;3.70;;;7.70;99.90;;;;;;4947877;28;20028;-59
2022/01/22 14:19:59;;;;;;;6.65;3.50;;;7.80;99.90;;;;;;4944364;29;20142;-60
2022/01/22 14:22:25;;;;;;;8.00;4.22;;;7.60;99.90;;;;;;4944696;29;20024;-60
2022/01/22 14:25:08;;;;;;;8.23;3.80;;;7.80;99.90;;;;;;4940939;29;20045;-59
2022/01/22 14:27:34;;;;;;;8.25;4.28;;;7.80;99.90;;;;;;4935846;28;20039;-59
2022/01/22 14:30:00;;;;;;;8.15;4.22;;;7.80;99.90;;;;;;4946857;28;20433;-59
2022/01/22 14:32:27;;;;;;;5.93;3.33;;;7.80;99.90;;;;;;4947180;29;20501;-58
2022/01/22 14:34:53;;;;;;;5.72;3.50;;;7.80;99.90;;;;;;4954232;28;20472;-58
2022/01/22 14:37:31;;;;;;;6.57;3.55;;;7.90;99.90;;;;;;4947299;28;20035;-60